Time;durP1;ratioP1;P1;durP2;ratioP2;P2;SDS_P1;SDS_P2;PMS_P1;PMS_P2;Temp;Humidity;BMP_temperature;BMP_pressure;BME280_temperature;BME280_humidity;BME280_pressure;Samples;Min_cycle;Max_cycle;Signal;HPM_P1;HPM_P2
2021/12/02 00:01:11;;;;;;;5.88;3.38;;;;;;;23.52;4.47;98305.81;5115288;28;20099;-69
2021/12/02 00:03:37;;;;;;;7.70;3.67;;;;;;;23.50;4.32;98306.16;5115009;28;20450;-68
2021/12/02 00:06:11;;;;;;;6.68;3.83;;;;;;;23.51;4.74;98306.94;5104987;28;20111;-68
2021/12/02 00:08:37;;;;;;;5.35;3.30;;;;;;;23.51;4.44;98299.59;5094444;28;20035;-68
2021/12/02 00:11:02;;;;;;;6.32;3.90;;;;;;;23.51;4.60;98306.94;5094693;28;20040;-68
2021/12/02 00:13:30;;;;;;;5.05;3.03;;;;;;;23.51;4.52;98304.22;5094495;28;20047;-68
2021/12/02 00:16:15;;;;;;;7.32;3.72;;;;;;;23.48;4.59;98310.34;5094530;28;20036;-68
2021/12/02 00:21:10;;;;;;;6.28;3.60;;;;;;;23.48;4.55;98310.34;5093442;28;20111;-68
2021/12/02 00:24:02;;;;;;;4.25;2.90;;;;;;;23.55;4.80;98318.81;5059797;28;20024;-68
2021/12/02 00:26:28;;;;;;;5.45;3.03;;;;;;;23.53;4.60;98318.34;5075801;28;20393;-68
2021/12/02 00:28:55;;;;;;;7.28;4.20;;;;;;;23.48;4.90;98319.31;5093942;28;20016;-68
2021/12/02 00:31:22;;;;;;;5.63;2.90;;;;;;;23.48;4.85;98313.84;5094238;28;20042;-68
2021/12/02 00:33:50;;;;;;;7.53;3.92;;;;;;;23.48;4.70;98321.25;5094015;28;20582;-68
2021/12/02 00:36:16;;;;;;;5.63;2.97;;;;;;;23.46;4.65;98315.28;5094141;28;20024;-70
2021/12/02 00:38:42;;;;;;;7.50;3.47;;;;;;;23.44;4.67;98321.88;5094247;28;20085;-68
2021/12/02 00:41:11;;;;;;;6.28;3.30;;;;;;;23.47;4.91;98327.81;5094254;28;20573;-68
2021/12/02 00:43:37;;;;;;;5.85;3.42;;;;;;;23.47;4.78;98331.31;5094245;28;20518;-68
2021/12/02 00:46:05;;;;;;;4.88;2.83;;;;;;;23.48;4.97;98337.59;5076528;28;20024;-68
2021/12/02 00:48:30;;;;;;;5.70;3.00;;;;;;;23.46;4.78;98339.81;5094625;28;20099;-68
2021/12/02 00:50:56;;;;;;;5.35;3.05;;;;;;;23.48;4.94;98334.88;5059600;28;20050;-68
2021/12/02 00:53:21;;;;;;;4.75;2.95;;;;;;;23.46;5.08;98332.47;5076131;28;20462;-68
2021/12/02 00:55:46;;;;;;;7.18;3.85;;;;;;;23.47;5.03;98335.97;5076677;28;20035;-69
2021/12/02 00:58:15;;;;;;;6.28;3.20;;;;;;;23.48;5.00;98343.03;5060731;28;20031;-69
2021/12/02 01:00:41;;;;;;;5.75;3.13;;;;;;;23.46;5.13;98329.75;5095213;28;20028;-69
2021/12/02 01:03:06;;;;;;;6.68;3.38;;;;;;;23.47;5.20;98330.53;5060763;28;20031;-68
2021/12/02 01:05:33;;;;;;;4.43;3.00;;;;;;;23.46;5.01;98332.47;5083823;28;20457;-69
2021/12/02 01:07:59;;;;;;;6.00;3.53;;;;;;;23.47;5.20;98333.25;5096815;28;20024;-68
2021/12/02 01:10:25;;;;;;;6.43;3.15;;;;;;;23.45;5.08;98333.56;5114314;28;20027;-69
2021/12/02 01:12:50;;;;;;;6.97;3.63;;;;;;;23.46;5.03;98339.81;5113668;28;20020;-69
2021/12/02 01:15:16;;;;;;;7.18;3.83;;;;;;;23.46;5.04;98350.72;5114027;28;20031;-68
2021/12/02 01:17:41;;;;;;;5.75;3.25;;;;;;;23.46;5.21;98350.72;5113977;28;20482;-69
2021/12/02 01:20:07;;;;;;;6.97;3.55;;;;;;;23.44;5.40;98351.06;5113622;28;20504;-69
2021/12/02 01:22:34;;;;;;;5.82;3.33;;;;;;;23.42;5.30;98348.66;5095511;28;20031;-69
2021/12/02 01:24:59;;;;;;;5.20;3.00;;;;;;;23.44;5.34;98343.69;5095791;28;20027;-69
2021/12/02 01:27:25;;;;;;;5.00;2.83;;;;;;;23.43;5.24;98342.06;5113512;28;20035;-68
2021/12/02 01:29:51;;;;;;;7.05;3.65;;;;;;;23.44;5.53;98346.41;5113803;28;20027;-68
2021/12/02 01:32:16;;;;;;;6.07;3.53;;;;;;;23.45;5.43;98344.47;5098532;28;20030;-68
2021/12/02 01:34:46;;;;;;;6.38;3.63;;;;;;;23.47;5.40;98341.44;5099871;28;20027;-68
2021/12/02 01:37:11;;;;;;;6.13;3.50;;;;;;;23.44;5.61;98340.16;5118086;28;20454;-68
2021/12/02 01:39:37;;;;;;;5.95;3.17;;;;;;;23.44;5.46;98343.69;5099697;28;20030;-69
2021/12/02 01:42:02;;;;;;;5.93;3.35;;;;;;;23.47;5.52;98341.44;5117942;28;20027;-69
2021/12/02 01:44:28;;;;;;;4.72;3.13;;;;;;;23.43;5.56;98341.28;5117533;28;20438;-69
2021/12/02 01:46:58;;;;;;;7.85;3.97;;;;;;;23.43;5.49;98342.06;5117870;28;20039;-68
2021/12/02 01:49:29;;;;;;;6.50;3.15;;;;;;;23.41;5.56;98338.09;5117713;28;20026;-68
2021/12/02 01:51:55;;;;;;;5.88;3.72;;;;;;;23.42;5.57;98337.75;5117879;28;20126;-68
2021/12/02 01:54:23;;;;;;;7.25;3.63;;;;;;;23.42;5.54;98340.50;5117311;28;20027;-68
2021/12/02 01:56:50;;;;;;;5.15;2.90;;;;;;;23.41;5.80;98338.09;5117600;28;20084;-68
2021/12/02 01:59:37;;;;;;;6.72;3.50;;;;;;;23.47;5.68;98330.53;5117505;28;20111;-68
2021/12/02 02:02:04;;;;;;;6.80;3.60;;;;;;;23.41;5.70;98336.16;5117515;28;20059;-68
2021/12/02 02:04:29;;;;;;;5.93;3.20;;;;;;;23.44;5.88;98342.91;5117468;28;20080;-68
2021/12/02 02:07:02;;;;;;;5.57;3.42;;;;;;;23.41;5.76;98333.44;5101327;28;20035;-69
2021/12/02 02:09:30;;;;;;;5.20;3.28;;;;;;;23.40;5.83;98331.03;5097052;28;20082;-68
2021/12/02 02:11:56;;;;;;;6.72;3.15;;;;;;;23.42;5.69;98334.22;5096936;28;20127;-69
2021/12/02 02:14:23;;;;;;;6.63;3.50;;;;;;;23.39;5.83;98330.22;5096669;28;20442;-69
2021/12/02 02:16:49;;;;;;;6.68;4.00;;;;;;;23.41;5.68;98333.44;5096773;28;20073;-69
2021/12/02 02:19:14;;;;;;;5.72;3.25;;;;;;;23.41;5.87;98327.19;5096509;28;20044;-69
2021/12/02 02:21:40;;;;;;;6.05;3.35;;;;;;;23.41;5.92;98327.97;5096820;28;20413;-69
2021/12/02 02:24:07;;;;;;;5.63;3.38;;;;;;;23.41;5.92;98333.44;5096380;28;20423;-69
2021/12/02 02:26:36;;;;;;;8.05;3.40;;;;;;;23.39;6.03;98324.78;5096654;28;20077;-69
2021/12/02 02:29:03;;;;;;;8.18;3.22;;;;;;;23.39;6.02;98315.81;5096957;28;20020;-69
2021/12/02 02:31:29;;;;;;;4.57;2.47;;;;;;;23.40;5.85;98331.84;5096246;28;20056;-69
2021/12/02 02:33:54;;;;;;;5.28;3.28;;;;;;;23.39;5.88;98334.88;5096748;28;20138;-69
2021/12/02 02:36:21;;;;;;;7.35;3.28;;;;;;;23.39;6.07;98330.22;5096335;28;20035;-69
2021/12/02 02:38:57;;;;;;;5.72;3.00;;;;;;;23.40;5.95;98342.75;5095997;28;20031;-68
2021/12/02 02:41:24;;;;;;;6.38;3.63;;;;;;;23.38;6.09;98334.06;5078072;28;20028;-70
2021/12/02 02:43:50;;;;;;;5.63;3.08;;;;;;;23.39;5.90;98346.59;5095294;28;20032;-69
2021/12/02 02:46:28;;;;;;;6.18;3.13;;;;;;;23.39;6.13;98343.84;5095921;28;20533;-69
2021/12/02 02:48:54;;;;;;;5.80;2.90;;;;;;;23.41;5.98;98343.53;5096839;28;20024;-69
2021/12/02 02:51:19;;;;;;;5.45;3.17;;;;;;;23.40;6.16;98348.19;5096153;28;20062;-69
2021/12/02 02:53:51;;;;;;;5.18;3.10;;;;;;;23.39;6.12;98340.34;5096004;28;20034;-69
2021/12/02 02:56:18;;;;;;;5.72;3.50;;;;;;;23.41;6.02;98333.44;5078580;28;20028;-69
2021/12/02 03:01:39;;;;;;;5.35;2.60;;;;;;;23.40;6.10;98328.28;5095804;28;20130;-69
2021/12/02 03:06:57;;;;;;;3.95;2.70;;;;;;;23.39;6.20;98330.22;5094305;28;20385;-68
2021/12/02 03:12:01;;;;;;;5.47;2.90;;;;;;;23.39;6.22;98327.50;5115896;28;20053;-69
2021/12/02 03:14:52;;;;;;;5.03;2.88;;;;;;;23.38;6.25;98317.72;5116093;28;20027;-69
2021/12/02 03:17:16;;;;;;;6.13;3.35;;;;;;;23.42;6.27;98321.41;5086244;28;20517;-69
2021/12/02 03:19:42;;;;;;;5.38;2.90;;;;;;;23.46;6.12;98323.47;5115816;28;20040;-69
2021/12/02 03:22:08;;;;;;;5.40;2.95;;;;;;;23.52;6.08;98319.47;5115908;28;20072;-69
2021/12/02 03:24:33;;;;;;;5.18;2.95;;;;;;;23.54;6.08;98328.09;5116001;28;20107;-69
2021/12/02 03:26:59;;;;;;;6.95;3.15;;;;;;;23.56;6.26;98325.84;5116108;28;20024;-69
2021/12/02 03:29:24;;;;;;;5.82;3.45;;;;;;;23.61;6.32;98336.59;5116573;28;20112;-69
2021/12/02 03:31:50;;;;;;;6.60;3.50;;;;;;;23.64;6.23;98344.13;5116265;28;20028;-69
2021/12/02 03:34:16;;;;;;;4.95;3.20;;;;;;;23.62;6.33;98340.94;5115797;28;20035;-68
2021/12/02 03:36:42;;;;;;;4.53;2.95;;;;;;;23.69;6.50;98341.22;5115777;28;20028;-69
2021/12/02 03:39:08;;;;;;;4.05;2.90;;;;;;;23.71;6.33;98338.97;5115378;28;20046;-69
2021/12/02 03:41:34;;;;;;;8.25;3.20;;;;;;;23.74;6.37;98346.50;5115649;28;20072;-68
2021/12/02 03:43:59;;;;;;;6.47;3.28;;;;;;;23.75;6.48;98344.56;5115465;28;20023;-68
2021/12/02 03:46:24;;;;;;;6.38;3.50;;;;;;;23.76;6.41;98349.72;5115261;28;20431;-69
2021/12/02 03:48:50;;;;;;;6.68;3.45;;;;;;;23.79;6.10;98349.06;5115377;28;20031;-68
2021/12/02 03:51:17;;;;;;;6.60;3.35;;;;;;;23.79;6.35;98342.81;5096949;28;20035;-69
2021/12/02 03:53:43;;;;;;;6.07;3.17;;;;;;;23.82;6.29;98339.47;5115367;28;20031;-68
2021/12/02 03:56:08;;;;;;;5.45;3.10;;;;;;;23.79;6.43;98338.16;5114189;28;20381;-68
2021/12/02 03:58:35;;;;;;;5.47;3.20;;;;;;;23.78;6.37;98335.75;5115302;28;20081;-68
2021/12/02 04:01:00;;;;;;;6.15;3.10;;;;;;;23.76;6.50;98338.81;5115163;28;20019;-68
2021/12/02 04:03:26;;;;;;;5.22;2.95;;;;;;;23.76;6.45;98336.06;5114868;28;20318;-68
2021/12/02 04:05:51;;;;;;;5.95;3.17;;;;;;;23.78;6.32;98336.56;5109661;28;20076;-68
2021/12/02 04:08:17;;;;;;;5.78;3.17;;;;;;;23.79;6.62;98321.78;5094456;28;20027;-68
2021/12/02 04:10:43;;;;;;;4.47;2.58;;;;;;;23.79;6.79;98321.78;5094430;28;20355;-69
2021/12/02 04:15:49;;;;;;;3.47;1.98;;;;;;;23.87;6.82;98322.13;5132338;27;20375;-68
2021/12/02 04:18:15;;;;;;;3.55;2.13;;;;;;;23.91;6.51;98323.09;5132017;27;20045;-68
2021/12/02 04:20:40;;;;;;;2.90;2.17;;;;;;;23.94;6.84;98322.41;5132367;27;20031;-68
2021/12/02 04:23:05;;;;;;;3.20;1.95;;;;;;;23.98;6.48;98328.81;5131770;27;20422;-68
2021/12/02 04:25:31;;;;;;;1.83;1.55;;;;;;;24.04;6.82;98332.97;5130622;28;20041;-69
2021/12/02 04:27:56;;;;;;;2.60;1.75;;;;;;;24.05;6.83;98336.50;5131803;27;20026;-70
2021/12/02 04:30:23;;;;;;;2.92;1.65;;;;;;;24.04;6.95;98327.50;5132248;27;20027;-68
2021/12/02 04:32:51;;;;;;;4.47;2.03;;;;;;;24.06;6.59;98325.28;5131631;27;20023;-68
2021/12/02 04:35:17;;;;;;;2.17;1.60;;;;;;;24.08;6.74;98327.69;5131870;27;20023;-68
2021/12/02 04:37:45;;;;;;;3.95;1.55;;;;;;;24.10;6.58;98325.41;5131504;27;20331;-68
2021/12/02 04:40:16;;;;;;;4.25;1.85;;;;;;;24.11;6.74;98330.56;5131211;27;20163;-68
2021/12/02 04:42:42;;;;;;;1.88;1.60;;;;;;;24.14;7.00;98315.44;5131557;27;20032;-70
2021/12/02 04:45:08;;;;;;;2.83;1.63;;;;;;;24.14;6.72;98305.31;5131271;27;20118;-68
2021/12/02 04:47:33;;;;;;;2.70;1.70;;;;;;;24.17;6.67;98304.66;5131013;27;20478;-69
2021/12/02 04:49:58;;;;;;;2.85;1.42;;;;;;;24.18;6.74;98300.81;5131306;27;20046;-68
2021/12/02 04:52:24;;;;;;;2.60;1.30;;;;;;;24.22;6.77;98302.91;5131447;27;20470;-69
2021/12/02 04:54:49;;;;;;;2.42;1.55;;;;;;;24.11;6.60;98307.91;5131166;27;20028;-69
2021/12/02 04:57:15;;;;;;;2.38;1.42;;;;;;;24.18;6.78;98305.44;5131247;27;20023;-69
2021/12/02 04:59:40;;;;;;;2.55;1.50;;;;;;;24.21;6.93;98309.47;5130936;27;20453;-69
2021/12/02 05:02:05;;;;;;;2.10;1.50;;;;;;;24.27;6.79;98310.91;5131206;27;20027;-69
2021/12/02 05:04:31;;;;;;;3.05;1.70;;;;;;;24.28;7.28;98307.81;5129743;28;20032;-69
2021/12/02 05:06:56;;;;;;;2.35;1.48;;;;;;;24.23;6.96;98312.66;5143668;27;20381;-69
2021/12/02 05:09:21;;;;;;;3.78;2.13;;;;;;;24.30;6.63;98311.03;5151795;27;20027;-69
2021/12/02 05:11:47;;;;;;;3.17;1.45;;;;;;;24.33;6.72;98306.81;5151635;27;20027;-69
2021/12/02 05:14:13;;;;;;;2.35;1.67;;;;;;;24.35;6.90;98312.75;5151237;27;20446;-70
2021/12/02 05:16:39;;;;;;;2.83;1.63;;;;;;;24.37;6.76;98314.03;5150227;27;20034;-68
2021/12/02 05:19:05;;;;;;;2.08;1.20;;;;;;;24.37;6.99;98318.72;5151181;27;20023;-68
2021/12/02 05:21:30;;;;;;;2.55;1.63;;;;;;;24.38;6.93;98314.84;5151483;27;20483;-68
2021/12/02 05:23:57;;;;;;;1.63;1.20;;;;;;;24.40;7.02;98301.66;5151325;27;20367;-70
2021/12/02 05:26:23;;;;;;;4.43;1.50;;;;;;;24.43;7.04;98309.19;5141508;27;20030;-68
2021/12/02 05:28:49;;;;;;;1.77;1.45;;;;;;;24.44;7.29;98312.69;5137305;27;20030;-69
2021/12/02 05:31:14;;;;;;;2.78;1.50;;;;;;;24.46;6.88;98314.00;5137347;27;20369;-69
2021/12/02 05:33:40;;;;;;;2.20;1.40;;;;;;;24.44;6.86;98310.78;5118812;27;20389;-69
2021/12/02 05:36:05;;;;;;;2.28;1.50;;;;;;;24.45;7.03;98323.28;5137350;27;20460;-69
2021/12/02 05:38:30;;;;;;;1.65;1.30;;;;;;;24.50;6.91;98316.84;5137229;27;20030;-69
2021/12/02 05:40:56;;;;;;;3.17;1.50;;;;;;;24.49;6.91;98316.06;5137071;27;20019;-69
2021/12/02 05:43:21;;;;;;;2.80;1.38;;;;;;;24.51;6.57;98313.78;5136789;27;20454;-68
2021/12/02 05:45:47;;;;;;;2.67;1.40;;;;;;;24.50;6.59;98311.41;5137161;27;20023;-69
2021/12/02 05:48:12;;;;;;;2.15;1.25;;;;;;;24.52;6.71;98318.09;5136935;27;20023;-68
2021/12/02 05:50:37;;;;;;;2.67;1.40;;;;;;;24.55;7.09;98320.22;5135969;27;20020;-69
2021/12/02 05:53:03;;;;;;;2.83;1.48;;;;;;;24.56;7.02;98321.03;5137128;27;20031;-69
2021/12/02 05:55:28;;;;;;;1.90;1.45;;;;;;;24.57;7.11;98317.16;5137016;27;20023;-69
2021/12/02 05:57:54;;;;;;;2.70;1.63;;;;;;;24.59;6.88;98325.03;5137141;27;20484;-69
2021/12/02 06:00:19;;;;;;;2.00;1.40;;;;;;;24.52;6.66;98315.38;5137656;27;20042;-69
2021/12/02 06:02:45;;;;;;;4.22;1.60;;;;;;;24.59;7.40;98314.09;5136194;27;20023;-69
2021/12/02 06:05:15;;;;;;;3.25;1.27;;;;;;;24.64;7.55;98316.63;5136258;27;20031;-70
2021/12/02 06:07:41;;;;;;;2.95;1.50;;;;;;;24.61;8.33;98312.66;5117077;27;20028;-69
2021/12/02 06:10:07;;;;;;;2.03;1.30;;;;;;;24.67;7.84;98321.44;5115814;28;20469;-69
2021/12/02 06:12:32;;;;;;;3.05;1.40;;;;;;;24.66;8.32;98320.63;5116171;28;20031;-70
2021/12/02 06:14:57;;;;;;;2.58;1.50;;;;;;;24.66;8.37;98323.34;5115222;28;20473;-70
2021/12/02 06:17:23;;;;;;;2.72;1.60;;;;;;;24.71;7.61;98316.91;5115756;28;20047;-69
2021/12/02 06:19:48;;;;;;;2.78;1.45;;;;;;;24.70;7.54;98318.06;5115726;28;20020;-68
2021/12/02 06:22:14;;;;;;;3.88;1.40;;;;;;;24.69;7.31;98322.69;5115376;28;20385;-69
2021/12/02 06:25:05;;;;;;;3.03;1.73;;;;;;;24.71;7.50;98323.16;5115757;27;20027;-69
2021/12/02 06:27:30;;;;;;;1.92;1.45;;;;;;;24.74;6.99;98327.97;5115505;28;20352;-69
2021/12/02 06:29:55;;;;;;;2.50;1.60;;;;;;;24.70;7.02;98326.25;5115499;28;20051;-70
2021/12/02 06:32:21;;;;;;;2.42;1.67;;;;;;;24.73;6.93;98326.38;5115180;28;20422;-70
2021/12/02 06:34:46;;;;;;;2.90;1.80;;;;;;;24.74;7.31;98333.44;5115307;28;20161;-71
2021/12/02 06:37:12;;;;;;;3.35;1.58;;;;;;;24.74;7.24;98332.63;5114276;28;20023;-69
2021/12/02 06:39:37;;;;;;;1.80;1.45;;;;;;;24.78;7.13;98333.56;5115188;28;20019;-70
2021/12/02 06:42:03;;;;;;;2.35;1.50;;;;;;;24.83;7.60;98336.09;5115494;28;20363;-71
2021/12/02 06:44:28;;;;;;;1.73;1.05;;;;;;;24.78;7.06;98343.69;5115829;28;20028;-71
2021/12/02 06:46:55;;;;;;;2.42;1.58;;;;;;;24.78;7.28;98343.69;5115159;28;20023;-70
2021/12/02 06:49:20;;;;;;;1.92;1.42;;;;;;;24.81;6.92;98349.28;5115190;27;20074;-70
2021/12/02 06:51:46;;;;;;;1.90;1.48;;;;;;;24.82;6.76;98345.44;5115450;28;20024;-70
2021/12/02 06:54:11;;;;;;;1.42;1.17;;;;;;;24.80;7.11;98344.97;5119879;28;20028;-70
2021/12/02 06:56:37;;;;;;;2.83;1.42;;;;;;;24.80;6.80;98355.91;5120268;28;20351;-70
2021/12/02 06:59:02;;;;;;;3.28;1.55;;;;;;;24.81;7.12;98367.63;5118690;28;20015;-70
2021/12/02 07:01:27;;;;;;;3.72;2.10;;;;;;;24.79;7.07;98369.88;5115948;28;20068;-70
2021/12/02 07:03:53;;;;;;;2.75;1.70;;;;;;;24.88;7.17;98370.63;5114699;28;20028;-69
2021/12/02 07:06:21;;;;;;;1.67;1.50;;;;;;;24.87;6.93;98369.00;5122186;27;20027;-69
2021/12/02 07:08:46;;;;;;;2.55;1.50;;;;;;;24.87;7.05;98369.84;5135472;27;20114;-70
2021/12/02 07:11:12;;;;;;;3.00;1.65;;;;;;;24.91;7.25;98373.50;5135468;27;20031;-68
2021/12/02 07:13:39;;;;;;;2.80;1.85;;;;;;;24.93;7.12;98371.22;5135292;27;20055;-69
2021/12/02 07:16:05;;;;;;;2.65;1.58;;;;;;;24.97;7.24;98370.56;5135593;27;20026;-69
2021/12/02 07:18:35;;;;;;;4.30;1.90;;;;;;;25.00;7.28;98367.97;5135426;27;20019;-69
2021/12/02 07:21:01;;;;;;;3.28;1.83;;;;;;;25.04;7.26;98374.38;5135131;27;20023;-68
2021/12/02 07:23:26;;;;;;;3.67;1.65;;;;;;;25.01;7.38;98379.69;5134993;27;20079;-68
2021/12/02 07:25:52;;;;;;;5.10;2.00;;;;;;;24.96;7.63;98377.16;5135322;27;20019;-69
2021/12/02 07:28:17;;;;;;;2.25;1.60;;;;;;;24.99;7.44;98382.78;5134744;27;20023;-69
2021/12/02 07:30:43;;;;;;;2.83;1.75;;;;;;;24.93;7.38;98390.34;5133914;27;20072;-69
2021/12/02 07:33:10;;;;;;;2.20;1.63;;;;;;;24.98;7.29;98396.75;5135729;27;20027;-68
2021/12/02 07:35:35;;;;;;;2.60;1.90;;;;;;;25.05;7.63;98397.81;5134828;27;20158;-69
2021/12/02 07:38:01;;;;;;;3.08;1.63;;;;;;;25.04;7.70;98401.72;5135170;27;20110;-69
2021/12/02 07:40:27;;;;;;;5.18;2.05;;;;;;;25.02;7.20;98403.16;5133501;27;20112;-70
2021/12/02 07:42:53;;;;;;;2.95;1.70;;;;;;;25.01;7.46;98396.91;5135025;27;20051;-69
2021/12/02 07:45:20;;;;;;;3.15;1.80;;;;;;;24.93;7.57;98401.28;5134978;27;20051;-69
2021/12/02 07:47:45;;;;;;;3.10;1.88;;;;;;;24.97;7.44;98406.09;5134895;27;20033;-68
2021/12/02 07:50:12;;;;;;;4.22;1.73;;;;;;;25.00;7.56;98400.75;5134183;27;20023;-69
2021/12/02 07:52:45;;;;;;;2.10;1.40;;;;;;;24.96;7.42;98393.53;5134652;27;20045;-68
2021/12/02 07:55:10;;;;;;;2.22;1.40;;;;;;;24.96;7.57;98396.28;5134418;27;20425;-70
2021/12/02 07:57:36;;;;;;;2.58;1.58;;;;;;;25.05;7.10;98397.03;5133645;27;20020;-69
2021/12/02 08:00:01;;;;;;;2.17;1.33;;;;;;;25.01;7.36;98396.06;5115973;27;20023;-69
2021/12/02 08:02:33;;;;;;;2.83;1.60;;;;;;;24.94;7.38;98396.63;5134750;27;20434;-70
2021/12/02 08:04:59;;;;;;;2.22;1.80;;;;;;;25.03;7.62;98397.38;5133255;27;20031;-69
2021/12/02 08:07:25;;;;;;;3.25;1.65;;;;;;;25.03;7.54;98399.31;5118910;28;20024;-69
2021/12/02 08:09:52;;;;;;;2.20;1.45;;;;;;;25.08;7.58;98402.63;5113819;28;20034;-69
2021/12/02 08:12:17;;;;;;;3.67;1.58;;;;;;;25.10;7.47;98399.56;5113914;28;20047;-69
2021/12/02 08:14:42;;;;;;;3.35;1.52;;;;;;;25.10;7.82;98396.84;5113452;28;20051;-68
2021/12/02 08:17:08;;;;;;;5.55;1.48;;;;;;;25.08;7.35;98399.91;5114173;28;20499;-69
2021/12/02 08:19:36;;;;;;;2.47;1.33;;;;;;;25.07;7.45;98394.75;5113830;28;20028;-70
2021/12/02 08:22:01;;;;;;;1.67;1.30;;;;;;;25.09;7.57;98409.72;5113760;28;20031;-68
2021/12/02 08:24:26;;;;;;;3.63;1.52;;;;;;;25.11;7.37;98406.63;5113535;28;20043;-69
2021/12/02 08:26:53;;;;;;;4.32;1.40;;;;;;;25.11;7.57;98418.38;5114028;28;20027;-69
2021/12/02 08:29:19;;;;;;;4.63;1.35;;;;;;;25.11;7.74;98417.53;5113873;28;20111;-70
2021/12/02 08:31:44;;;;;;;8.43;1.80;;;;;;;25.12;7.99;98419.16;5147083;27;20107;-68
2021/12/02 08:34:10;;;;;;;6.95;2.10;;;;;;;25.09;7.66;98422.56;5114445;28;20444;-69
2021/12/02 08:36:46;;;;;;;10.23;2.10;;;;;;;25.10;7.90;98416.75;5114090;28;20028;-69
2021/12/02 08:39:16;;;;;;;7.18;2.00;;;;;;;25.11;7.70;98409.34;5114516;28;20027;-69
2021/12/02 08:41:45;;;;;;;10.85;2.28;;;;;;;25.14;8.06;98422.34;5113550;28;20098;-68
2021/12/02 08:44:11;;;;;;;5.43;2.08;;;;;;;25.12;7.53;98430.09;5112061;28;20423;-68
2021/12/02 08:46:36;;;;;;;6.00;2.00;;;;;;;25.10;7.61;98432.38;5114255;28;20046;-69
2021/12/02 08:49:03;;;;;;;5.15;1.63;;;;;;;25.06;7.76;98429.50;5114400;28;20527;-69
2021/12/02 08:51:28;;;;;;;5.03;1.83;;;;;;;25.12;7.85;98432.81;5113741;28;20461;-69
2021/12/02 08:53:55;;;;;;;6.10;2.20;;;;;;;25.15;8.14;98429.44;5113773;28;20034;-71
2021/12/02 08:56:20;;;;;;;7.75;1.95;;;;;;;25.11;8.06;98423.84;5112469;28;20069;-68
2021/12/02 08:58:46;;;;;;;4.07;2.05;;;;;;;25.17;8.18;98416.22;5114220;28;20023;-68
2021/12/02 09:01:12;;;;;;;6.90;2.00;;;;;;;25.12;7.82;98424.63;5115664;28;20355;-68
2021/12/02 09:03:40;;;;;;;6.13;2.40;;;;;;;25.18;8.12;98422.50;5119786;28;20020;-69
2021/12/02 09:06:10;;;;;;;3.55;1.48;;;;;;;25.14;7.83;98425.09;5122965;27;20034;-67
2021/12/02 09:08:36;;;;;;;3.70;1.70;;;;;;;25.11;7.63;98412.91;5139162;27;20415;-67
2021/12/02 09:11:03;;;;;;;6.05;1.98;;;;;;;25.18;7.99;98423.31;5138432;27;20023;-70
2021/12/02 09:13:28;;;;;;;3.60;1.77;;;;;;;25.16;7.74;98425.56;5137795;27;20027;-68
2021/12/02 09:15:54;;;;;;;2.30;1.67;;;;;;;25.16;7.81;98419.28;5138722;27;20057;-68
2021/12/02 09:18:19;;;;;;;2.88;1.58;;;;;;;25.10;7.95;98424.16;5139844;27;20034;-68
2021/12/02 09:20:45;;;;;;;5.80;2.30;;;;;;;25.13;7.61;98415.31;5140218;27;20031;-67
2021/12/02 09:23:10;;;;;;;5.55;2.55;;;;;;;25.16;7.91;98413.81;5139175;27;20023;-68
2021/12/02 09:25:36;;;;;;;4.95;2.08;;;;;;;25.15;7.54;98418.50;5139732;27;20031;-68
2021/12/02 09:28:01;;;;;;;7.10;2.00;;;;;;;25.05;7.61;98413.44;5139085;27;20465;-68
2021/12/02 09:30:27;;;;;;;2.95;1.88;;;;;;;25.09;7.54;98415.19;5144373;27;20027;-68
2021/12/02 09:32:52;;;;;;;3.17;1.70;;;;;;;25.10;7.75;98416.75;5145134;27;20019;-68
2021/12/02 09:35:18;;;;;;;4.43;1.95;;;;;;;25.15;7.57;98401.28;5145463;27;20027;-68
2021/12/02 09:37:43;;;;;;;4.57;2.13;;;;;;;25.12;7.67;98402.75;5145722;27;20030;-68
2021/12/02 09:40:10;;;;;;;3.30;2.03;;;;;;;25.14;7.62;98411.44;5146514;27;20024;-69
2021/12/02 09:42:35;;;;;;;4.60;1.88;;;;;;;25.15;7.62;98404.84;5145255;27;20098;-68
2021/12/02 09:45:02;;;;;;;5.43;2.08;;;;;;;25.18;7.78;98411.56;5144997;27;20060;-68
2021/12/02 09:47:32;;;;;;;3.65;1.80;;;;;;;25.19;7.67;98405.75;5139950;27;20026;-70
2021/12/02 09:50:05;;;;;;;4.88;2.08;;;;;;;25.23;7.95;98403.16;5138235;27;20089;-68
2021/12/02 09:52:35;;;;;;;4.97;2.03;;;;;;;25.23;8.03;98405.91;5139036;27;20431;-68
2021/12/02 09:55:08;;;;;;;4.93;1.75;;;;;;;25.20;7.78;98399.16;5137027;27;20453;-68
2021/12/02 09:57:38;;;;;;;3.10;1.88;;;;;;;25.20;8.12;98396.44;5135874;27;20023;-68
2021/12/02 10:00:04;;;;;;;3.20;1.98;;;;;;;25.19;8.01;98402.25;5135622;27;20080;-68
2021/12/02 10:02:30;;;;;;;4.47;1.50;;;;;;;25.15;7.86;98407.56;5135319;27;20395;-68
2021/12/02 10:05:04;;;;;;;3.75;1.80;;;;;;;25.23;7.81;98405.91;5137013;27;20043;-70
2021/12/02 10:12:32;;;;;;;4.25;2.00;;;;;;;25.22;8.04;98404.31;5116795;28;20051;-69
2021/12/02 10:14:59;;;;;;;3.47;1.65;;;;;;;25.21;7.76;98405.44;5115059;28;20078;-69
2021/12/02 10:17:38;;;;;;;3.13;1.70;;;;;;;25.21;7.68;98400.75;5148929;27;20031;-68
2021/12/02 10:23:24;;;;;;;2.13;1.30;;;;;;;25.29;7.96;98405.41;5116017;28;20084;-68
2021/12/02 10:26:01;;;;;;;1.88;1.20;;;;;;;25.22;7.76;98401.56;5052698;28;20435;-68
2021/12/02 10:28:30;;;;;;;3.33;1.27;;;;;;;25.23;7.99;98409.44;5052821;28;20060;-69
2021/12/02 10:31:01;;;;;;;2.97;1.08;;;;;;;25.27;8.39;98398.66;5036789;28;20087;-68
2021/12/02 10:33:38;;;;;;;1.27;1.00;;;;;;;25.20;8.31;98393.72;5052980;28;20059;-69
2021/12/02 10:36:05;;;;;;;2.00;1.50;;;;;;;25.25;8.20;98398.16;5053286;28;20531;-68
2021/12/02 10:38:31;;;;;;;5.53;1.40;;;;;;;25.26;8.44;98397.84;5052907;28;20021;-68
2021/12/02 10:41:01;;;;;;;4.53;1.65;;;;;;;25.24;8.01;98397.38;5053212;28;20053;-68
2021/12/02 10:43:26;;;;;;;2.50;1.17;;;;;;;25.19;7.89;98386.63;5052643;28;20067;-68
2021/12/02 10:45:52;;;;;;;1.40;1.00;;;;;;;25.23;7.98;98398.50;5052723;28;20032;-69
2021/12/02 10:48:19;;;;;;;2.53;0.93;;;;;;;25.24;8.16;98402.03;5036171;28;20115;-69
2021/12/02 10:50:44;;;;;;;2.05;1.20;;;;;;;25.24;8.26;98393.84;5052696;28;20056;-69
2021/12/02 10:53:10;;;;;;;4.90;1.20;;;;;;;25.28;8.20;98390.13;5052366;28;20503;-70
2021/12/02 10:55:35;;;;;;;2.10;1.33;;;;;;;25.29;8.05;98397.19;5035681;28;20033;-69
2021/12/02 10:58:01;;;;;;;2.25;1.10;;;;;;;25.30;8.24;98389.78;5052109;28;20028;-69
2021/12/02 11:00:28;;;;;;;3.47;1.33;;;;;;;25.28;8.41;98387.41;5052480;28;20036;-69
2021/12/02 11:02:55;;;;;;;1.60;1.23;;;;;;;25.26;8.13;98386.91;5102608;28;20031;-68
2021/12/02 11:05:31;;;;;;;1.98;1.00;;;;;;;25.30;8.30;98396.06;5114763;28;20038;-68
2021/12/02 11:08:06;;;;;;;1.55;1.10;;;;;;;25.30;8.41;98387.88;5130951;27;20023;-68
2021/12/02 11:10:35;;;;;;;3.47;1.40;;;;;;;25.32;8.55;98390.28;5135739;27;20119;-69
2021/12/02 11:13:00;;;;;;;4.75;1.35;;;;;;;25.28;8.80;98390.13;5135916;27;20465;-69
2021/12/02 11:15:27;;;;;;;3.22;1.30;;;;;;;25.22;8.08;98388.69;5116985;27;20043;-68
2021/12/02 11:17:57;;;;;;;2.22;1.33;;;;;;;25.29;8.52;98389.00;5135602;27;20015;-68
2021/12/02 11:20:23;;;;;;;3.75;1.30;;;;;;;25.20;8.51;98392.88;5134296;27;20106;-70
2021/12/02 11:23:00;;;;;;;4.28;1.45;;;;;;;25.23;8.40;98409.44;5135335;27;20469;-68
2021/12/02 11:25:26;;;;;;;3.08;1.42;;;;;;;25.30;8.44;98404.28;5134482;27;20023;-68
2021/12/02 11:27:51;;;;;;;2.33;1.30;;;;;;;25.33;8.73;98402.00;5136968;27;20023;-74
2021/12/02 11:30:25;;;;;;;3.67;1.35;;;;;;;25.30;8.39;98398.81;5117953;27;20023;-74
2021/12/02 11:32:51;;;;;;;5.22;1.42;;;;;;;25.33;8.37;98408.25;5135947;27;20015;-74
2021/12/02 11:35:23;;;;;;;3.42;1.50;;;;;;;25.28;8.22;98406.53;5136036;27;20473;-74
2021/12/02 11:37:54;;;;;;;3.95;1.60;;;;;;;25.30;8.41;98395.25;5136702;27;20325;-75
2021/12/02 11:40:25;;;;;;;4.68;1.65;;;;;;;25.32;8.32;98400.38;5135447;27;20430;-75
2021/12/02 11:42:51;;;;;;;4.18;1.58;;;;;;;25.36;8.66;98407.59;5136564;27;20074;-75
2021/12/02 11:45:18;;;;;;;3.15;1.73;;;;;;;25.34;8.45;98403.59;5135402;27;20023;-75
2021/12/02 11:47:43;;;;;;;3.67;1.58;;;;;;;25.34;8.54;98398.13;5135910;27;20027;-75
2021/12/02 11:50:09;;;;;;;6.60;1.60;;;;;;;25.26;8.48;98397.84;5136102;27;20361;-74
2021/12/02 11:52:36;;;;;;;6.03;2.10;;;;;;;25.34;8.35;98400.88;5135372;27;20027;-75
2021/12/02 11:55:07;;;;;;;6.55;1.90;;;;;;;25.34;8.41;98403.59;5134387;27;20019;-74
2021/12/02 11:57:34;;;;;;;3.35;1.52;;;;;;;25.33;8.23;98402.78;5134855;27;20040;-74
2021/12/02 12:00:02;;;;;;;5.93;1.63;;;;;;;25.34;8.31;98398.13;5134379;27;20110;-75
2021/12/02 12:02:27;;;;;;;4.85;1.65;;;;;;;25.37;8.33;98397.44;5134885;27;20027;-75